Pagrindinis puslapis
METAR-TAF:

METAR-TAF

Oro uostai :

Saporas, Japonija

platuma: 43-07N, ilguma: 141-23E, Aukštis: 8 m

Dabartinis oras

Ataskaita buvo paskelbta 2 valandos ir 12 minutes, ne 11:00 UTC
Vėjas 9 kt iš Pietryčių
Temperatūra -1°C
Drėgmė 69%
Slėgis 1025 hPa
Matomumas 10 km arba daugiau
Mažai debesys ne aukštis 3000 ft
Su prošvaistėmis ne aukštis 6000 ft

METAR: RJCO 091100Z 13009KT 9999 FEW030 BKN060 M01/M06 Q1025

Laikas: 22:12 (13:12 UTC)


TAF: trūkstamas

Orai ataskaitas ir orų prognozės (METAR, TAF).

turimą stotys yra geltonos ir raudonos taškus žemėlapyje.

Perkelti pele per norėdami pamatyti stoties vardą.

Tada spustelėkite, norėdami matyti oro stebėjimo ir prognozės.

Norėdami pakeisti žemėlapį: spustelėkite ant žalios mygtukų su juodo kryžiaus žemyn,; žalią mygtuką su brūkšneliu, jei norite nutolinti; arba žalių rodyklių gretimoms žemėlapius.


METAR-TAF: